Time;durP1;ratioP1;P1;durP2;ratioP2;P2;SDS_P1;SDS_P2;PMS_P1;PMS_P2;Temp;Humidity;BMP_temperature;BMP_pressure;BME280_temperature;BME280_humidity;BME280_pressure;Samples;Min_cycle;Max_cycle;Signal;HPM_P1;HPM_P2
2023/05/10 00:00:12;;;;;;;;;3.00;1.33;;;;;13.16;100.00;101150.38;5060587;28;46027;-70
2023/05/10 00:02:37;;;;;;;;;2.00;2.00;;;;;13.13;100.00;101149.69;5064348;28;45497;-70
2023/05/10 00:05:03;;;;;;;;;2.00;2.00;;;;;13.12;100.00;101156.78;5068044;28;45526;-71
2023/05/10 00:07:28;;;;;;;;;2.00;2.00;;;;;13.07;100.00;101142.88;5068280;27;45483;-70
2023/05/10 00:09:53;;;;;;;;;1.67;1.67;;;;;12.98;100.00;101138.03;5066128;28;45335;-70
2023/05/10 00:12:19;;;;;;;;;1.33;1.00;;;;;12.97;100.00;101137.19;5060650;27;45409;-70
2023/05/10 00:14:44;;;;;;;;;4.67;2.00;;;;;12.96;100.00;101146.06;5069740;28;51567;-71
2023/05/10 00:17:10;;;;;;;;;5.00;1.00;;;;;12.91;100.00;101148.13;5063452;28;46946;-70
2023/05/10 00:19:35;;;;;;;;;2.00;1.00;;;;;12.76;100.00;101137.44;5066720;28;45256;-70
2023/05/10 00:22:01;;;;;;;;;2.33;1.00;;;;;12.81;100.00;101148.66;5063864;28;45505;-70
2023/05/10 00:24:26;;;;;;;;;0.00;0.00;;;;;12.72;100.00;101138.50;5069768;28;45611;-70
2023/05/10 00:26:52;;;;;;;;;6.00;1.00;;;;;12.74;100.00;101147.25;5072296;28;45474;-70
2023/05/10 00:29:17;;;;;;;;;1.00;1.00;;;;;12.53;100.00;101130.63;5059515;28;45418;-71
2023/05/10 00:31:42;;;;;;;;;0.67;0.67;;;;;12.60;100.00;101145.28;5062996;28;45587;-71
2023/05/10 00:34:07;;;;;;;;;2.00;1.00;;;;;12.56;100.00;101143.75;5060539;28;51196;-71
2023/05/10 00:36:33;;;;;;;;;0.67;0.33;;;;;12.51;100.00;101148.41;5061930;27;55167;-70
2023/05/10 00:38:58;;;;;;;;;1.00;0.00;;;;;12.48;100.00;101151.22;5068031;28;45304;-70
2023/05/10 00:41:24;;;;;;;;;2.00;1.00;;;;;12.43;100.00;101156.72;5064957;28;45482;-71
2023/05/10 00:43:49;;;;;;;;;1.00;0.00;;;;;12.37;100.00;101158.81;5058823;28;45346;-70
2023/05/10 00:46:15;;;;;;;;;1.00;0.00;;;;;12.32;100.00;101169.69;5066827;28;46440;-70
2023/05/10 00:48:42;;;;;;;;;0.00;0.00;;;;;12.22;100.00;101167.53;5066020;28;45372;-70
2023/05/10 00:51:07;;;;;;;;;0.00;0.00;;;;;12.17;100.00;101151.00;5071341;28;45503;-71
2023/05/10 00:53:34;;;;;;;;;0.00;0.00;;;;;12.16;100.00;101167.84;5071103;27;45390;-70
2023/05/10 00:56:00;;;;;;;;;3.00;0.67;;;;;12.07;100.00;101161.19;5059210;28;45413;-71
2023/05/10 00:58:27;;;;;;;;;0.00;0.00;;;;;12.12;100.00;101169.75;5068692;28;46829;-70
2023/05/10 01:00:54;;;;;;;;;0.00;0.00;;;;;12.09;100.00;101163.75;5072809;27;45421;-70
2023/05/10 01:03:20;;;;;;;;;2.00;0.00;;;;;12.04;100.00;101161.34;5062401;28;45554;-71
2023/05/10 01:05:46;;;;;;;;;0.00;0.00;;;;;12.08;100.00;101172.63;5059228;28;45439;-70
2023/05/10 01:08:11;;;;;;;;;0.33;0.00;;;;;12.06;100.00;101175.38;5070335;28;45298;-70
2023/05/10 01:10:37;;;;;;;;;0.00;0.00;;;;;12.07;100.00;101168.28;5076984;28;45235;-70
2023/05/10 01:13:03;;;;;;;;;1.00;1.00;;;;;12.07;100.00;101163.84;5067224;27;45520;-69
2023/05/10 01:15:29;;;;;;;;;0.00;0.00;;;;;12.08;100.00;101172.63;5062184;28;45497;-70
2023/05/10 01:17:56;;;;;;;;;0.00;0.00;;;;;12.07;100.00;101169.13;5075426;28;45565;-70
2023/05/10 01:20:21;;;;;;;;;3.00;1.00;;;;;11.94;100.00;101141.50;5062530;28;45479;-70
2023/05/10 01:22:56;;;;;;;;;2.00;0.00;;;;;12.11;100.00;101167.16;5070508;28;45553;-70
2023/05/10 01:26:12;;;;;;;;;0.00;0.00;;;;;12.11;100.00;101167.16;5061827;28;46179;-70
2023/05/10 01:28:58;;;;;;;;;0.00;0.00;;;;;12.09;100.00;101155.78;5019295;28;45552;-70
2023/05/10 01:31:45;;;;;;;;;0.00;0.00;;;;;12.11;100.00;101172.47;5032970;28;46720;-70
2023/05/10 01:34:19;;;;;;;;;0.00;0.00;;;;;12.10;100.00;101173.44;5061855;28;45497;-70
2023/05/10 01:36:58;;;;;;;;;0.00;0.00;;;;;12.10;100.00;101171.66;5065854;28;45316;-70
2023/05/10 01:39:44;;;;;;;;;0.67;0.67;;;;;12.15;100.00;101180.22;5068069;28;45436;-70
2023/05/10 01:42:16;;;;;;;;;1.67;0.00;;;;;12.14;100.00;101181.16;5060164;27;45446;-70
2023/05/10 01:45:16;;;;;;;;;0.00;0.00;;;;;12.14;100.00;101175.84;5066332;28;45548;-71
2023/05/10 01:47:44;;;;;;;;;0.00;0.00;;;;;12.12;100.00;101179.50;5061457;28;45358;-70
2023/05/10 01:50:19;;;;;;;;;0.00;0.00;;;;;12.15;100.00;101185.53;5063481;28;45304;-71
2023/05/10 01:52:51;;;;;;;;;0.00;0.00;;;;;12.12;100.00;101187.47;5060637;28;45485;-70
2023/05/10 01:55:20;;;;;;;;;1.00;0.00;;;;;12.11;100.00;101183.09;5070033;28;45461;-70
2023/05/10 01:57:50;;;;;;;;;1.00;1.00;;;;;12.18;100.00;101188.03;5070108;28;47150;-70
2023/05/10 02:00:18;;;;;;;;;0.00;0.00;;;;;12.21;100.00;101193.19;5065730;28;45755;-70
2023/05/10 02:02:49;;;;;;;;;0.00;0.00;;;;;12.16;100.00;101181.09;5063526;28;45514;-70
2023/05/10 02:05:16;;;;;;;;;0.00;0.00;;;;;12.22;100.00;101191.41;5059592;28;45292;-70
2023/05/10 02:07:42;;;;;;;;;0.67;0.67;;;;;12.17;100.00;101183.66;5064608;28;45691;-70
2023/05/10 02:10:10;;;;;;;;;0.00;0.00;;;;;12.19;100.00;101186.25;5073375;28;45295;-70
2023/05/10 02:12:39;;;;;;;;;0.00;0.00;;;;;12.14;100.00;101183.81;5061115;28;45351;-70
2023/05/10 02:15:06;;;;;;;;;1.00;0.00;;;;;12.14;100.00;101183.81;5071221;27;45510;-71
2023/05/10 02:17:32;;;;;;;;;0.67;0.00;;;;;12.12;100.00;101184.81;5059066;28;45431;-71
2023/05/10 02:20:00;;;;;;;;;0.00;0.00;;;;;12.15;100.00;101182.00;5071479;28;45593;-71
2023/05/10 02:22:27;;;;;;;;;0.00;0.00;;;;;12.14;100.00;101177.66;5070023;27;45313;-71
2023/05/10 02:24:55;;;;;;;;;0.00;0.00;;;;;12.10;100.00;101178.72;5061670;28;45556;-71
2023/05/10 02:27:23;;;;;;;;;0.00;0.00;;;;;12.08;100.00;101173.50;5064119;28;46506;-71
2023/05/10 02:29:50;;;;;;;;;0.00;0.00;;;;;12.12;100.00;101185.66;5069980;28;45426;-71
2023/05/10 02:32:17;;;;;;;;;0.33;0.00;;;;;12.08;100.00;101188.53;5059619;28;45306;-71
2023/05/10 02:34:45;;;;;;;;;0.00;0.00;;;;;12.08;100.00;101192.03;5058137;28;45676;-70
2023/05/10 02:37:14;;;;;;;;;0.00;0.00;;;;;12.12;100.00;101200.72;5062913;28;46154;-70
2023/05/10 02:39:43;;;;;;;;;0.00;0.00;;;;;12.09;100.00;101191.13;5065932;28;45488;-71
2023/05/10 02:42:13;;;;;;;;;0.00;0.00;;;;;12.08;100.00;101197.34;5074940;28;45438;-71
2023/05/10 02:44:41;;;;;;;;;0.00;0.00;;;;;12.01;100.00;101180.00;5063988;28;45327;-71
2023/05/10 02:47:07;;;;;;;;;0.00;0.00;;;;;12.11;100.00;101204.28;5063735;28;45237;-71
2023/05/10 02:49:32;;;;;;;;;0.00;0.00;;;;;12.06;100.00;101185.09;5070796;28;45317;-70
2023/05/10 02:52:02;;;;;;;;;0.00;0.00;;;;;12.14;100.00;101191.75;5070845;27;45705;-71
2023/05/10 02:54:32;;;;;;;;;0.00;0.00;;;;;12.16;100.00;101192.56;5068710;28;45393;-70
2023/05/10 02:57:00;;;;;;;;;0.00;0.00;;;;;12.16;100.00;101187.25;5061166;28;45378;-70
2023/05/10 02:59:26;;;;;;;;;0.33;0.00;;;;;12.14;100.00;101183.81;5057459;28;45361;-70
2023/05/10 03:01:51;;;;;;;;;0.00;0.00;;;;;12.11;100.00;101169.81;5057539;28;45280;-70
2023/05/10 03:04:16;;;;;;;;;0.00;0.00;;;;;12.14;100.00;101175.00;5069802;28;45490;-70
2023/05/10 03:06:42;;;;;;;;;0.00;0.00;;;;;12.15;100.00;101174.06;5067641;28;45629;-70
2023/05/10 03:09:09;;;;;;;;;0.00;0.00;;;;;12.19;100.00;101171.19;5069693;28;45533;-70
2023/05/10 03:11:45;;;;;;;;;1.00;0.00;;;;;12.17;100.00;101182.81;5065312;28;45434;-70
2023/05/10 03:14:16;;;;;;;;;0.00;0.00;;;;;12.13;100.00;101175.94;5067226;28;45533;-70
2023/05/10 03:16:57;;;;;;;;;1.00;0.00;;;;;12.06;100.00;101161.25;5081234;27;47216;-70
2023/05/10 03:19:27;;;;;;;;;0.00;0.00;;;;;12.13;100.00;101179.44;5063226;27;45355;-70
2023/05/10 03:21:58;;;;;;;;;0.00;0.00;;;;;12.15;100.00;101176.72;5067841;28;45324;-70
2023/05/10 03:24:28;;;;;;;;;0.00;0.00;;;;;12.11;100.00;101181.28;5076930;28;45484;-71
2023/05/10 03:26:58;;;;;;;;;0.00;0.00;;;;;12.05;100.00;101173.63;5069554;28;45292;-70
2023/05/10 03:29:25;;;;;;;;;0.00;0.00;;;;;12.08;100.00;101181.44;5064765;28;45303;-70
2023/05/10 03:31:51;;;;;;;;;0.00;0.00;;;;;12.00;100.00;101168.56;5068647;28;45442;-71
2023/05/10 03:34:17;;;;;;;;;0.00;0.00;;;;;11.97;100.00;101160.75;5065254;28;45507;-71
2023/05/10 03:36:42;;;;;;;;;0.67;0.00;;;;;12.10;100.00;101173.44;5068887;28;46214;-70
2023/05/10 03:39:08;;;;;;;;;0.00;0.00;;;;;12.07;100.00;101169.13;5071045;28;45391;-70
2023/05/10 03:41:33;;;;;;;;;0.00;0.00;;;;;11.99;100.00;101171.28;5068183;28;45459;-71
2023/05/10 03:43:58;;;;;;;;;0.67;0.00;;;;;11.87;100.00;101153.31;5062485;28;45574;-71
2023/05/10 03:46:24;;;;;;;;;0.00;0.00;;;;;12.00;100.00;101173.00;5076871;28;52589;-70
2023/05/10 03:48:49;;;;;;;;;0.00;0.00;;;;;12.03;100.00;101180.81;5064210;28;51322;-70
2023/05/10 03:51:14;;;;;;;;;0.00;0.00;;;;;11.89;100.00;101154.09;5063858;28;56092;-70
2023/05/10 03:53:39;;;;;;;;;0.00;0.00;;;;;12.06;100.00;101174.50;5063604;27;46679;-71
2023/05/10 03:56:05;;;;;;;;;0.00;0.00;;;;;12.04;100.00;101182.53;5060299;28;45366;-71
2023/05/10 03:58:30;;;;;;;;;0.00;0.00;;;;;12.00;100.00;101165.91;5060347;28;45490;-70
2023/05/10 04:00:56;;;;;;;;;0.00;0.00;;;;;12.07;100.00;101165.63;5061408;28;45533;-71
2023/05/10 04:03:21;;;;;;;;;0.00;0.00;;;;;12.06;100.00;101158.59;5067394;28;45310;-69
2023/05/10 04:05:46;;;;;;;;;0.00;0.00;;;;;12.02;100.00;101164.03;5065435;28;46217;-69
2023/05/10 04:08:12;;;;;;;;;1.00;0.00;;;;;12.09;100.00;101169.06;5063757;28;51128;-69
2023/05/10 04:10:37;;;;;;;;;0.00;0.00;;;;;12.08;100.00;101165.53;5060680;28;46016;-69
2023/05/10 04:13:02;;;;;;;;;1.00;0.00;;;;;12.03;100.00;101162.25;5069304;28;45280;-70
2023/05/10 04:15:27;;;;;;;;;0.00;0.00;;;;;12.12;100.00;101171.56;5075865;27;45576;-69
2023/05/10 04:17:53;;;;;;;;;0.00;0.00;;;;;12.11;100.00;101176.00;5059341;28;54022;-70
2023/05/10 04:20:18;;;;;;;;;0.00;0.00;;;;;12.10;100.00;101160.19;5062600;28;45499;-70
2023/05/10 04:22:44;;;;;;;;;0.00;0.00;;;;;12.14;100.00;101172.38;5060299;28;45335;-69
2023/05/10 04:25:09;;;;;;;;;0.00;0.00;;;;;12.11;100.00;101161.88;5063249;28;46079;-69
2023/05/10 04:27:35;;;;;;;;;0.00;0.00;;;;;12.13;100.00;101150.28;5078483;28;45392;-69
2023/05/10 04:30:00;;;;;;;;;0.00;0.00;;;;;12.15;100.00;101156.34;5067888;28;45445;-69
2023/05/10 04:32:25;;;;;;;;;0.00;0.00;;;;;12.11;100.00;101161.88;5072870;28;45491;-69
2023/05/10 04:34:51;;;;;;;;;0.00;0.00;;;;;12.05;100.00;101152.44;5064218;27;48848;-70
2023/05/10 04:37:17;;;;;;;;;0.00;0.00;;;;;12.14;100.00;101169.72;5063421;28;45508;-69
2023/05/10 04:39:43;;;;;;;;;1.33;0.00;;;;;12.06;100.00;101153.28;5076587;28;45292;-69
2023/05/10 04:42:08;;;;;;;;;0.00;0.00;;;;;12.12;100.00;101159.16;5070562;28;45496;-70
2023/05/10 04:44:33;;;;;;;;;4.00;1.00;;;;;12.12;100.00;101153.84;5066471;28;46587;-72
2023/05/10 04:47:00;;;;;;;;;0.00;0.00;;;;;12.07;100.00;101142.63;5060018;28;45357;-72
2023/05/10 04:49:25;;;;;;;;;1.33;1.00;;;;;12.10;100.00;101144.25;5059490;28;45313;-71
2023/05/10 04:51:50;;;;;;;;;0.00;0.00;;;;;12.18;100.00;101158.00;5064232;28;52661;-72
2023/05/10 04:54:15;;;;;;;;;0.67;0.00;;;;;12.19;100.00;101160.59;5074188;27;54736;-71
2023/05/10 04:56:41;;;;;;;;;0.00;0.00;;;;;12.16;100.00;101158.09;5059831;28;45275;-72
2023/05/10 04:59:06;;;;;;;;;2.00;0.00;;;;;12.16;100.00;101149.28;5059570;28;46808;-73
2023/05/10 05:01:32;;;;;;;;;0.00;0.00;;;;;12.24;100.00;101158.56;5069053;28;45495;-72
2023/05/10 05:03:58;;;;;;;;;1.00;1.00;;;;;12.27;100.00;101160.22;5072876;28;45861;-72
2023/05/10 05:06:24;;;;;;;;;1.00;1.00;;;;;12.25;100.00;101147.03;5063828;28;45308;-72
2023/05/10 05:08:50;;;;;;;;;0.00;0.00;;;;;12.30;100.00;101154.78;5067849;28;45489;-72
2023/05/10 05:11:15;;;;;;;;;1.00;0.00;;;;;12.26;100.00;101150.53;5067161;28;45454;-72
2023/05/10 05:13:40;;;;;;;;;1.00;0.00;;;;;12.16;100.00;101136.00;5070026;28;45545;-73
2023/05/10 05:16:06;;;;;;;;;1.00;0.00;;;;;12.29;100.00;101161.00;5083413;27;45389;-71
2023/05/10 05:18:31;;;;;;;;;1.33;0.00;;;;;12.22;100.00;101151.63;5064813;28;45497;-70
2023/05/10 05:20:57;;;;;;;;;0.00;0.00;;;;;12.26;100.00;101162.03;5064052;28;45430;-70
2023/05/10 05:23:24;;;;;;;;;1.00;1.00;;;;;12.24;100.00;101147.09;5067518;28;45469;-70
2023/05/10 05:25:52;;;;;;;;;1.00;1.00;;;;;12.24;100.00;101155.03;5061554;28;45552;-69
2023/05/10 05:28:17;;;;;;;;;0.00;0.00;;;;;12.27;100.00;101154.94;5066502;27;45302;-69
2023/05/10 05:30:42;;;;;;;;;2.00;1.00;;;;;12.36;100.00;101162.44;5067412;28;45733;-70
2023/05/10 05:33:08;;;;;;;;;1.00;1.00;;;;;12.39;100.00;101165.78;5068270;28;46279;-69
2023/05/10 05:35:33;;;;;;;;;1.00;1.00;;;;;12.37;100.00;101158.81;5064948;28;57030;-69
2023/05/10 05:37:58;;;;;;;;;2.00;1.00;;;;;12.43;100.00;101167.34;5060336;28;45523;-70
2023/05/10 05:40:24;;;;;;;;;2.00;1.00;;;;;12.41;100.00;101163.06;5066055;27;45418;-69
2023/05/10 05:42:49;;;;;;;;;0.33;0.33;;;;;12.44;100.00;101174.38;5067252;27;45535;-70
2023/05/10 05:45:15;;;;;;;;;2.00;2.00;;;;;12.53;100.00;101178.38;5071202;28;45366;-69
2023/05/10 05:47:40;;;;;;;;;2.67;1.00;;;;;12.47;100.00;101163.59;5063461;28;45394;-69
2023/05/10 05:50:06;;;;;;;;;1.00;1.00;;;;;12.59;100.00;101178.09;5072427;28;45464;-69
2023/05/10 05:52:31;;;;;;;;;3.00;1.33;;;;;12.58;100.00;101172.84;5058679;28;46591;-70
2023/05/10 05:54:57;;;;;;;;;5.00;2.00;;;;;12.68;100.00;101171.44;5073979;28;45377;-69
2023/05/10 05:57:22;;;;;;;;;1.00;1.00;;;;;12.78;100.00;101180.66;5060638;27;53155;-69
2023/05/10 05:59:48;;;;;;;;;1.33;1.00;;;;;12.85;100.00;101177.63;5061922;28;45847;-69
2023/05/10 06:02:13;;;;;;;;;1.00;1.00;;;;;12.82;100.00;101172.50;5062369;27;45914;-70
2023/05/10 06:04:39;;;;;;;;;2.33;1.67;;;;;12.89;100.00;101187.13;5062853;28;56063;-71
2023/05/10 06:07:04;;;;;;;;;3.00;3.00;;;;;12.84;100.00;101175.91;5075747;27;45234;-72
2023/05/10 06:09:29;;;;;;;;;1.67;1.00;;;;;12.83;100.00;101171.53;5065377;28;45226;-72
2023/05/10 06:11:55;;;;;;;;;3.00;3.00;;;;;12.80;100.00;101184.97;5059906;28;45318;-72
2023/05/10 06:14:21;;;;;;;;;2.67;2.67;;;;;12.84;100.00;101183.88;5059901;28;45437;-72
2023/05/10 06:16:46;;;;;;;;;4.00;2.00;;;;;12.87;100.00;101181.06;5071826;28;45343;-72
2023/05/10 06:19:12;;;;;;;;;3.00;2.00;;;;;12.89;100.00;101188.97;5063554;27;45555;-72
2023/05/10 06:21:37;;;;;;;;;2.33;2.00;;;;;12.91;100.00;101189.72;5063881;28;45522;-71
2023/05/10 06:24:03;;;;;;;;;3.00;2.33;;;;;12.96;100.00;101201.81;5058338;28;45622;-72
2023/05/10 06:26:28;;;;;;;;;2.33;2.00;;;;;13.00;100.00;101207.84;5062612;28;45443;-72
2023/05/10 06:28:54;;;;;;;;;3.33;3.33;;;;;12.95;100.00;101192.16;5059789;28;45408;-74
2023/05/10 06:31:19;;;;;;;;;2.00;2.00;;;;;12.87;100.00;101181.06;5070346;28;45992;-71
2023/05/10 06:33:44;;;;;;;;;2.67;2.00;;;;;12.94;100.00;101187.78;5057329;28;51694;-72
2023/05/10 06:36:09;;;;;;;;;3.00;2.00;;;;;12.94;100.00;101187.78;5065197;28;45729;-72
2023/05/10 06:38:35;;;;;;;;;3.00;1.67;;;;;13.03;100.00;101203.25;5062551;28;46761;-72
2023/05/10 06:41:00;;;;;;;;;3.00;3.00;;;;;12.99;100.00;101201.66;5076021;28;48649;-71
2023/05/10 06:43:26;;;;;;;;;2.67;1.33;;;;;13.02;100.00;101204.16;5061406;28;45443;-73
2023/05/10 06:45:51;;;;;;;;;3.00;2.00;;;;;12.96;100.00;101203.63;5077583;28;46447;-72
2023/05/10 06:48:17;;;;;;;;;4.00;2.00;;;;;12.89;100.00;101187.13;5061151;27;45704;-72
2023/05/10 06:50:42;;;;;;;;;4.00;2.00;;;;;13.07;100.00;101212.78;5075626;28;46208;-70
2023/05/10 06:53:08;;;;;;;;;3.67;2.00;;;;;13.10;100.00;101208.28;5060773;28;51031;-70
2023/05/10 06:55:33;;;;;;;;;2.00;2.00;;;;;13.14;100.00;101213.34;5073297;28;45499;-71
2023/05/10 06:57:58;;;;;;;;;4.67;2.00;;;;;13.14;100.00;101209.84;5061056;28;45197;-72
2023/05/10 07:00:24;;;;;;;;;4.00;2.00;;;;;13.22;100.00;101218.28;5075027;28;48916;-71
2023/05/10 07:02:49;;;;;;;;;2.00;2.00;;;;;13.20;100.00;101215.69;5069124;27;45279;-69
2023/05/10 07:05:15;;;;;;;;;3.00;3.00;;;;;13.26;100.00;101219.81;5061212;28;45235;-70
2023/05/10 07:07:40;;;;;;;;;7.00;3.00;;;;;13.29;100.00;101220.53;5076694;27;45390;-71
2023/05/10 07:10:07;;;;;;;;;1.33;1.33;;;;;13.32;100.00;101228.34;5079000;27;46691;-70
2023/05/10 07:12:33;;;;;;;;;2.00;2.00;;;;;13.26;100.00;101212.72;5061330;28;45406;-68
2023/05/10 07:14:58;;;;;;;;;2.00;2.00;;;;;13.27;100.00;101226.88;5074797;27;45452;-71
2023/05/10 07:17:23;;;;;;;;;3.00;3.00;;;;;13.30;100.00;101234.66;5068778;28;45874;-72
2023/05/10 07:19:49;;;;;;;;;5.00;2.00;;;;;13.25;100.00;101224.28;5080727;27;45337;-72
2023/05/10 07:22:17;;;;;;;;;6.00;3.00;;;;;13.27;100.00;101240.16;5066069;27;45366;-71
2023/05/10 07:24:43;;;;;;;;;6.00;4.00;;;;;13.27;100.00;101243.66;5077612;27;45540;-71
2023/05/10 07:27:09;;;;;;;;;3.67;2.00;;;;;13.18;100.00;101225.56;5070662;28;45393;-71
2023/05/10 07:29:35;;;;;;;;;3.67;3.67;;;;;13.26;100.00;101231.31;5080927;27;45512;-71
2023/05/10 07:32:01;;;;;;;;;6.33;4.00;;;;;13.24;100.00;101237.66;5072238;28;45359;-71
2023/05/10 07:34:26;;;;;;;;;4.67;4.67;;;;;13.20;100.00;101209.53;5074081;28;45364;-72
2023/05/10 07:36:52;;;;;;;;;4.67;4.33;;;;;13.24;100.00;101232.34;5063321;28;45988;-71
2023/05/10 07:39:17;;;;;;;;;4.33;4.33;;;;;13.29;100.00;101231.16;5075400;28;46963;-71
2023/05/10 07:41:43;;;;;;;;;5.33;5.33;;;;;13.30;100.00;101232.88;5062139;28;45316;-71
2023/05/10 07:44:08;;;;;;;;;6.67;6.00;;;;;13.33;100.00;101239.81;5062227;28;45398;-72
2023/05/10 07:46:33;;;;;;;;;2.67;2.67;;;;;13.31;100.00;101237.25;5074174;27;45784;-71
2023/05/10 07:48:59;;;;;;;;;4.00;3.33;;;;;13.24;100.00;101232.34;5060268;28;45986;-70
2023/05/10 07:51:24;;;;;;;;;5.67;3.00;;;;;13.28;100.00;101240.09;5077392;27;59378;-70
2023/05/10 07:53:50;;;;;;;;;6.00;4.67;;;;;13.28;100.00;101245.41;5070826;28;50521;-71
2023/05/10 07:56:29;;;;;;;;;4.00;4.00;;;;;13.22;100.00;101239.53;5060531;28;45354;-71
2023/05/10 07:58:55;;;;;;;;;2.67;2.67;;;;;13.29;100.00;101247.09;5069566;28;45336;-71
2023/05/10 08:01:20;;;;;;;;;3.67;3.67;;;;;13.29;100.00;101248.88;5068917;28;45439;-71
2023/05/10 08:03:45;;;;;;;;;6.67;6.67;;;;;13.28;100.00;101250.72;5066111;28;45452;-71
2023/05/10 08:06:11;;;;;;;;;4.33;4.33;;;;;13.31;100.00;101247.03;5063710;28;45417;-70
2023/05/10 08:08:36;;;;;;;;;7.67;5.67;;;;;13.28;100.00;101245.41;5059117;28;46250;-72
2023/05/10 08:11:01;;;;;;;;;6.00;5.00;;;;;13.28;100.00;101244.53;5063579;28;45390;-71
2023/05/10 08:13:27;;;;;;;;;7.00;6.00;;;;;13.29;100.00;101246.22;5072211;27;45291;-72
2023/05/10 08:15:53;;;;;;;;;8.33;6.00;;;;;13.32;100.00;101251.38;5062255;28;45528;-71
2023/05/10 08:18:19;;;;;;;;;11.00;7.00;;;;;13.34;100.00;101252.19;5068294;28;46056;-71
2023/05/10 08:20:44;;;;;;;;;10.67;6.33;;;;;13.36;100.00;101266.22;5068161;28;45489;-71
2023/05/10 08:23:09;;;;;;;;;7.00;6.00;;;;;13.32;100.00;101248.72;5080330;27;45434;-71
2023/05/10 08:25:35;;;;;;;;;6.00;6.00;;;;;13.43;100.00;101263.19;5065348;28;49253;-72
2023/05/10 08:28:00;;;;;;;;;12.33;9.67;;;;;13.31;100.00;101245.22;5075531;28;45383;-71
2023/05/10 08:30:25;;;;;;;;;8.33;8.33;;;;;13.47;100.00;101266.56;5073145;27;45388;-71
2023/05/10 08:32:51;;;;;;;;;9.67;8.33;;;;;13.53;100.00;101282.19;5073688;28;45316;-71
2023/05/10 08:35:16;;;;;;;;;6.67;6.67;;;;;13.53;100.00;101272.41;5072750;28;55698;-72
2023/05/10 08:37:41;;;;;;;;;6.00;6.00;;;;;13.63;100.00;101278.09;5059838;28;45319;-71
2023/05/10 08:40:10;;;;;;;;;7.00;7.00;;;;;13.73;100.00;101289.13;5066434;28;53556;-72
2023/05/10 08:42:40;;;;;;;;;5.00;5.00;;;;;13.72;100.00;101272.28;5077598;28;45339;-72
2023/05/10 08:45:07;;;;;;;;;5.00;5.00;;;;;13.98;100.00;101279.75;5067587;28;45536;-71
2023/05/10 08:47:35;;;;;;;;;6.00;6.00;;;;;14.16;100.00;101285.03;5078366;28;47230;-72
2023/05/10 08:50:02;;;;;;;;;6.00;6.00;;;;;14.34;100.00;101281.38;5079538;27;45438;-72
2023/05/10 08:52:29;;;;;;;;;13.33;8.00;;;;;14.56;100.00;101289.91;5076398;28;45432;-72
2023/05/10 08:54:55;;;;;;;;;6.00;5.00;;;;;14.68;100.00;101299.00;5059482;28;45589;-72
2023/05/10 08:57:21;;;;;;;;;6.00;6.00;;;;;14.66;100.00;101291.09;5074692;28;45608;-72
2023/05/10 08:59:46;;;;;;;;;10.33;8.00;;;;;14.74;100.00;101307.50;5079905;27;45304;-71
2023/05/10 09:02:13;;;;;;;;;9.00;6.00;;;;;14.65;100.00;101301.84;5065686;28;45467;-72
2023/05/10 09:04:38;;;;;;;;;6.67;6.00;;;;;14.68;100.00;101310.53;5079224;28;45331;-72
2023/05/10 09:07:04;;;;;;;;;6.00;4.00;;;;;14.68;100.00;101317.66;5075817;27;57442;-72
2023/05/10 09:09:30;;;;;;;;;5.67;5.67;;;;;14.63;100.00;101311.72;5059189;28;45221;-71
2023/05/10 09:11:56;;;;;;;;;8.00;6.00;;;;;14.65;100.00;101315.16;5061373;28;45367;-71
2023/05/10 09:14:24;;;;;;;;;8.33;5.67;;;;;14.65;100.00;101324.00;5075627;27;45624;-72
2023/05/10 09:16:49;;;;;;;;;5.00;3.67;;;;;14.63;100.00;101317.88;5056843;28;46227;-72
2023/05/10 09:19:15;;;;;;;;;8.67;5.00;;;;;14.66;100.00;101322.22;5059492;28;45663;-72
2023/05/10 09:21:40;;;;;;;;;7.33;6.67;;;;;14.74;100.00;101331.47;5065446;27;45453;-72
2023/05/10 09:24:07;;;;;;;;;7.00;5.33;;;;;14.75;100.00;101332.34;5058932;28;45378;-72
2023/05/10 09:26:33;;;;;;;;;6.33;6.33;;;;;14.76;100.00;101334.91;5058878;28;47805;-72
2023/05/10 09:29:00;;;;;;;;;8.67;7.67;;;;;14.80;100.00;101339.13;5060318;28;45653;-71
2023/05/10 09:31:50;;;;;;;;;9.33;7.00;;;;;14.80;100.00;101346.25;5059209;28;45299;-72
2023/05/10 09:34:18;;;;;;;;;11.00;7.67;;;;;14.82;100.00;101341.72;5058572;28;45355;-72
2023/05/10 09:37:04;;;;;;;;;14.33;8.00;;;;;14.84;100.00;101348.66;5069121;28;45394;-73
2023/05/10 09:39:36;;;;;;;;;11.33;6.00;;;;;14.90;100.00;101350.97;5073023;28;45851;-69
2023/05/10 09:42:07;;;;;;;;;9.67;5.67;;;;;14.90;100.00;101353.63;5058622;28;45331;-72
2023/05/10 09:44:34;;;;;;;;;8.00;6.00;;;;;14.88;100.00;101346.69;5069921;28;45498;-72
2023/05/10 09:47:02;;;;;;;;;7.33;6.67;;;;;14.85;100.00;101358.38;5062948;27;45451;-72
2023/05/10 09:49:28;;;;;;;;;17.00;10.00;;;;;14.84;100.00;101353.97;5067652;28;45480;-71
2023/05/10 09:52:04;;;;;;;;;7.33;5.00;;;;;14.77;100.00;101351.75;5071362;28;45316;-72
2023/05/10 09:54:30;;;;;;;;;7.00;6.33;;;;;14.74;100.00;101352.78;5066706;28;45497;-71
2023/05/10 09:56:56;;;;;;;;;10.67;9.00;;;;;14.67;100.00;101350.53;5063503;27;46053;-72
2023/05/10 09:59:24;;;;;;;;;17.00;9.67;;;;;14.65;100.00;101355.97;5066608;28;45278;-72
2023/05/10 10:01:51;;;;;;;;;6.00;6.00;;;;;14.65;100.00;101363.09;5064260;28;45597;-71
2023/05/10 10:04:17;;;;;;;;;10.33;8.00;;;;;14.61;100.00;101367.72;5063334;28;45540;-71
2023/05/10 10:06:42;;;;;;;;;13.33;7.33;;;;;14.57;100.00;101379.47;5057815;28;45406;-71
2023/05/10 10:09:08;;;;;;;;;5.00;3.67;;;;;14.54;100.00;101369.84;5058739;28;45339;-72
2023/05/10 10:11:36;;;;;;;;;11.67;7.00;;;;;14.50;100.00;101373.59;5073708;28;45720;-72
2023/05/10 10:14:01;;;;;;;;;15.33;7.67;;;;;14.47;100.00;101368.47;5076773;27;45247;-71
2023/05/10 10:16:28;;;;;;;;;14.00;7.33;;;;;14.59;100.00;101367.78;5063590;28;45358;-71
2023/05/10 10:18:54;;;;;;;;;9.00;9.00;;;;;14.63;100.00;101365.81;5062584;28;45311;-71
2023/05/10 10:21:20;;;;;;;;;15.00;8.33;;;;;14.72;100.00;101367.13;5074804;28;45334;-71
2023/05/10 10:23:46;;;;;;;;;10.00;8.00;;;;;14.80;100.00;101365.75;5062172;28;45370;-71
2023/05/10 10:26:12;;;;;;;;;10.00;7.33;;;;;14.94;100.00;101363.19;5060568;28;46269;-72
2023/05/10 10:28:56;;;;;;;;;14.33;10.00;;;;;15.05;100.00;101357.25;5067120;28;45396;-72
2023/05/10 10:31:34;;;;;;;;;6.00;4.67;;;;;15.15;100.00;101355.75;5076751;28;45463;-72
2023/05/10 10:34:08;;;;;;;;;8.33;5.33;;;;;15.28;100.00;101351.44;5067601;28;45466;-72
2023/05/10 10:36:43;;;;;;;;;10.33;8.67;;;;;15.38;100.00;101343.78;5073648;27;45961;-72
2023/05/10 10:39:10;;;;;;;;;7.33;6.00;;;;;15.59;100.00;101353.22;5061741;28;45482;-71
2023/05/10 10:41:50;;;;;;;;;11.00;10.67;;;;;15.68;100.00;101350.00;5068315;28;45420;-72
2023/05/10 10:44:27;;;;;;;;;9.33;8.00;;;;;15.78;100.00;101350.31;5070000;28;45537;-72
2023/05/10 10:47:24;;;;;;;;;12.33;6.00;;;;;15.88;100.00;101354.13;5068197;27;45939;-72
2023/05/10 10:49:56;;;;;;;;;9.00;8.33;;;;;15.97;100.00;101354.44;5077174;27;45320;-72
2023/05/10 10:52:30;;;;;;;;;15.33;8.00;;;;;16.03;100.00;101361.22;5080888;27;45296;-72
2023/05/10 10:55:01;;;;;;;;;9.00;7.00;;;;;16.08;100.00;101360.00;5066126;27;45472;-70
2023/05/10 10:57:26;;;;;;;;;12.33;7.67;;;;;16.07;100.00;101363.59;5077593;28;45386;-71
2023/05/10 11:00:24;;;;;;;;;11.33;7.00;;;;;16.05;99.66;101367.31;5072949;27;45463;-70
2023/05/10 11:02:53;;;;;;;;;11.00;9.00;;;;;15.98;100.00;101353.50;5076767;28;45383;-71
2023/05/10 11:05:40;;;;;;;;;8.33;6.00;;;;;15.93;100.00;101352.06;5069698;28;45331;-71
2023/05/10 11:08:28;;;;;;;;;7.00;7.00;;;;;15.96;100.00;101367.88;5067209;28;45401;-71
2023/05/10 11:11:00;;;;;;;;;8.67;7.67;;;;;16.01;100.00;101358.63;5073429;27;45437;-70
2023/05/10 11:13:30;;;;;;;;;8.00;6.33;;;;;16.20;100.00;101357.53;5061062;28;45538;-69
2023/05/10 11:15:57;;;;;;;;;9.67;8.33;;;;;16.40;100.00;101360.66;5060928;28;45383;-70
2023/05/10 11:18:30;;;;;;;;;8.00;8.00;;;;;16.42;100.00;101350.75;5071473;28;46236;-69